createdAt,value
2023-04-08T00:00:25.417Z,98.26
2023-04-08T00:01:25.420Z,97.95
2023-04-08T00:02:25.598Z,97.95
2023-04-08T00:03:25.492Z,98.16
2023-04-08T00:04:25.595Z,98.41
2023-04-08T00:05:25.370Z,98.61
2023-04-08T00:06:25.347Z,98.82
2023-04-08T00:07:25.365Z,98.82
2023-04-08T00:08:25.330Z,98.76
2023-04-08T00:09:25.322Z,98.66
2023-04-08T00:10:25.315Z,98.66
2023-04-08T00:11:25.317Z,98.66
2023-04-08T00:12:25.290Z,98.60
2023-04-08T00:13:25.287Z,98.60
2023-04-08T00:14:25.281Z,98.71
2023-04-08T00:15:25.278Z,98.85
2023-04-08T00:16:25.368Z,98.96
2023-04-08T00:17:25.298Z,99.06
2023-04-08T00:18:25.219Z,99.16
2023-04-08T00:19:25.255Z,99.11
2023-04-08T00:20:25.228Z,99.42
2023-04-08T00:21:25.209Z,99.84
2023-04-08T00:22:25.187Z,99.94
2023-04-08T00:23:25.189Z,99.99
2023-04-08T00:24:25.154Z,99.99
2023-04-08T00:25:25.706Z,99.99
2023-04-08T00:26:25.137Z,99.99
2023-04-08T00:27:25.140Z,99.99
2023-04-08T00:28:25.122Z,99.99
2023-04-08T00:29:25.122Z,99.99
2023-04-08T00:30:25.094Z,99.99
2023-04-08T00:31:25.151Z,99.99
2023-04-08T00:32:25.076Z,99.99
2023-04-08T00:33:25.075Z,99.99
2023-04-08T00:34:25.057Z,99.99
2023-04-08T00:35:25.130Z,99.99
2023-04-08T00:36:25.034Z,99.99
2023-04-08T00:37:25.079Z,99.99
2023-04-08T00:38:25.011Z,99.99
2023-04-08T00:39:25.015Z,99.99
2023-04-08T00:40:25.015Z,99.99
2023-04-08T00:41:24.995Z,99.99
2023-04-08T00:42:24.964Z,99.99
2023-04-08T00:43:24.967Z,99.99
2023-04-08T00:44:24.949Z,99.99
2023-04-08T00:45:24.947Z,99.99
2023-04-08T00:46:24.955Z,99.99
2023-04-08T00:47:24.943Z,99.99
2023-04-08T00:48:24.905Z,99.99
2023-04-08T00:49:24.903Z,99.99
2023-04-08T00:50:24.890Z,99.99
2023-04-08T00:51:24.887Z,99.99
2023-04-08T00:52:24.861Z,99.99
2023-04-08T00:53:25.755Z,99.99
2023-04-08T00:54:24.842Z,99.99
2023-04-08T00:55:24.843Z,99.99
2023-04-08T00:56:24.820Z,99.99
2023-04-08T00:57:24.822Z,99.99
2023-04-08T00:58:24.791Z,99.99
2023-04-08T00:59:24.795Z,99.99
2023-04-08T01:00:24.782Z,99.99
2023-04-08T01:01:24.827Z,99.99
2023-04-08T01:02:24.902Z,99.99
2023-04-08T01:03:25.005Z,99.99
2023-04-08T01:04:24.884Z,99.99
2023-04-08T01:05:24.738Z,99.99
2023-04-08T01:06:25.530Z,99.99
2023-04-08T01:07:24.708Z,99.99
2023-04-08T01:08:24.682Z,99.99
2023-04-08T01:09:24.686Z,99.99
2023-04-08T01:10:24.733Z,99.99
2023-04-08T01:11:24.738Z,99.99
2023-04-08T01:12:24.660Z,99.99
2023-04-08T01:13:24.667Z,99.99
2023-04-08T01:14:24.621Z,99.99
2023-04-08T01:15:24.632Z,99.99
2023-04-08T01:16:24.669Z,99.99
2023-04-08T01:17:24.644Z,99.99
2023-04-08T01:18:24.584Z,99.99
2023-04-08T01:19:24.923Z,99.99
2023-04-08T01:20:24.564Z,99.99
2023-04-08T01:21:24.565Z,99.99
2023-04-08T01:22:24.543Z,99.99
2023-04-08T01:23:24.559Z,99.99
2023-04-08T01:24:24.550Z,99.99
2023-04-08T01:25:24.517Z,99.99
2023-04-08T01:26:24.506Z,99.99
2023-04-08T01:27:25.304Z,99.99
2023-04-08T01:28:24.478Z,99.99
2023-04-08T01:29:24.482Z,99.99
2023-04-08T01:30:24.466Z,99.99
2023-04-08T01:31:24.510Z,99.99
2023-04-08T01:32:24.441Z,99.99
2023-04-08T01:33:24.434Z,99.99
2023-04-08T01:34:24.410Z,99.99
2023-04-08T01:35:24.448Z,99.99
2023-04-08T01:36:24.401Z,99.99
2023-04-08T01:37:24.389Z,99.99
2023-04-08T01:38:24.369Z,99.99
2023-04-08T01:39:24.370Z,99.99
2023-04-08T01:40:24.377Z,99.99
2023-04-08T01:41:24.354Z,99.99
2023-04-08T01:42:24.346Z,99.99
2023-04-08T01:43:24.335Z,99.99
2023-04-08T01:44:24.320Z,99.99
2023-04-08T01:45:24.315Z,99.99
2023-04-08T01:46:24.315Z,99.99
2023-04-08T01:47:24.315Z,99.99
2023-04-08T01:48:24.278Z,99.99
2023-04-08T01:49:24.270Z,99.99
2023-04-08T01:50:24.250Z,99.99
2023-04-08T01:51:24.266Z,99.99
2023-04-08T01:52:24.234Z,99.99
2023-04-08T01:53:24.252Z,99.99
2023-04-08T01:54:24.217Z,99.99
2023-04-08T01:55:24.212Z,99.99
2023-04-08T01:56:24.201Z,99.99
2023-04-08T01:57:24.177Z,99.99
2023-04-08T01:58:24.183Z,99.99
2023-04-08T01:59:24.167Z,99.99
2023-04-08T02:00:24.173Z,99.99
2023-04-08T02:01:24.159Z,99.99
2023-04-08T02:02:24.396Z,99.99
2023-04-08T02:03:24.350Z,99.99
2023-04-08T02:04:24.210Z,99.99
2023-04-08T02:05:24.128Z,99.99
2023-04-08T02:06:24.115Z,99.99
2023-04-08T02:07:24.103Z,99.99
2023-04-08T02:08:24.080Z,99.99
2023-04-08T02:09:24.059Z,99.99
2023-04-08T02:10:24.066Z,99.99
2023-04-08T02:11:24.049Z,99.99
2023-04-08T02:12:24.046Z,99.99
2023-04-08T02:13:24.021Z,99.99
2023-04-08T02:14:24.019Z,99.99
2023-04-08T02:15:24.002Z,99.99
2023-04-08T02:16:24.058Z,99.99
2023-04-08T02:17:23.977Z,99.99
2023-04-08T02:18:23.974Z,99.99
2023-04-08T02:19:24.041Z,99.99
2023-04-08T02:20:23.959Z,99.99
2023-04-08T02:21:23.941Z,99.99
2023-04-08T02:22:23.934Z,99.99
2023-04-08T02:23:23.926Z,99.99
2023-04-08T02:24:23.918Z,99.99
2023-04-08T02:25:23.915Z,99.99
2023-04-08T02:26:23.915Z,99.99
2023-04-08T02:27:23.879Z,99.99
2023-04-08T02:28:23.880Z,99.99
2023-04-08T02:29:23.857Z,99.99
2023-04-08T02:30:23.883Z,99.99
2023-04-08T02:31:23.912Z,99.99
2023-04-08T02:32:23.835Z,99.99
2023-04-08T02:33:23.817Z,99.99
2023-04-08T02:34:23.818Z,99.99
2023-04-08T02:35:23.840Z,99.99
2023-04-08T02:36:23.798Z,99.99
2023-04-08T02:37:23.777Z,99.99
2023-04-08T02:38:23.793Z,99.99
2023-04-08T02:39:23.767Z,99.99
2023-04-08T02:40:23.773Z,99.99
2023-04-08T02:41:23.743Z,99.99
2023-04-08T02:42:23.748Z,99.99
2023-04-08T02:43:23.715Z,99.99
2023-04-08T02:44:23.718Z,99.99
2023-04-08T02:45:23.691Z,99.99
2023-04-08T02:46:23.764Z,99.99
2023-04-08T02:47:23.725Z,99.99
2023-04-08T02:48:23.670Z,99.99
2023-04-08T02:49:23.672Z,99.99
2023-04-08T02:50:23.659Z,99.99
2023-04-08T02:51:23.629Z,99.99
2023-04-08T02:52:23.630Z,99.99
2023-04-08T02:53:23.611Z,99.99
2023-04-08T02:54:23.610Z,99.99
2023-04-08T02:55:23.617Z,99.99
2023-04-08T02:56:23.600Z,99.99
2023-04-08T02:57:23.571Z,99.99
2023-04-08T02:58:23.571Z,99.99
2023-04-08T02:59:23.554Z,99.99
2023-04-08T03:00:23.549Z,99.99
2023-04-08T03:01:23.562Z,99.99
2023-04-08T03:02:23.661Z,99.99
2023-04-08T03:03:23.599Z,99.99
2023-04-08T03:04:23.505Z,99.99
2023-04-08T03:05:23.498Z,99.99
2023-04-08T03:06:23.486Z,99.99
2023-04-08T03:07:23.478Z,99.99
2023-04-08T03:08:23.463Z,99.99
2023-04-08T03:09:23.454Z,99.99
2023-04-08T03:10:23.454Z,99.99
2023-04-08T03:11:23.429Z,99.99
2023-04-08T03:12:23.422Z,99.99
2023-04-08T03:13:23.402Z,99.99
2023-04-08T03:14:23.430Z,99.99
2023-04-08T03:15:23.383Z,99.99
2023-04-08T03:16:23.865Z,99.99
2023-04-08T03:17:23.392Z,99.99
2023-04-08T03:18:23.362Z,99.99
2023-04-08T03:19:23.340Z,99.99
2023-04-08T03:20:23.357Z,99.99
2023-04-08T03:21:23.337Z,99.99
2023-04-08T03:22:23.328Z,99.99
2023-04-08T03:23:23.304Z,99.99
2023-04-08T03:24:23.307Z,99.99
2023-04-08T03:25:23.308Z,99.99
2023-04-08T03:26:23.285Z,99.99
2023-04-08T03:27:23.282Z,99.99
2023-04-08T03:28:23.263Z,99.99
2023-04-08T03:29:23.254Z,99.99
2023-04-08T03:30:23.237Z,99.99
2023-04-08T03:31:23.238Z,99.99
2023-04-08T03:32:23.256Z,99.99
2023-04-08T03:33:23.216Z,99.99
2023-04-08T03:34:23.196Z,99.99
2023-04-08T03:35:23.220Z,99.99
2023-04-08T03:36:23.177Z,99.99
2023-04-08T03:37:23.179Z,99.99
2023-04-08T03:38:23.161Z,99.99
2023-04-08T03:39:23.140Z,99.99
2023-04-08T03:40:23.135Z,99.99
2023-04-08T03:41:23.116Z,99.99
2023-04-08T03:42:23.123Z,99.99
2023-04-08T03:43:23.099Z,99.99
2023-04-08T03:44:23.090Z,99.99
2023-04-08T03:45:23.072Z,99.99
2023-04-08T03:46:23.123Z,99.99
2023-04-08T03:47:23.107Z,99.99
2023-04-08T03:48:23.047Z,99.99
2023-04-08T03:49:23.069Z,99.99
2023-04-08T03:50:23.029Z,99.99
2023-04-08T03:51:23.003Z,99.99
2023-04-08T03:52:23.017Z,99.99
2023-04-08T03:53:22.986Z,99.99
2023-04-08T03:54:23.001Z,99.99
2023-04-08T03:55:22.968Z,99.99
2023-04-08T03:56:22.981Z,99.99
2023-04-08T03:57:22.942Z,99.99
2023-04-08T03:58:22.947Z,99.99
2023-04-08T03:59:22.922Z,99.99
2023-04-08T04:00:22.936Z,99.99
2023-04-08T04:01:22.900Z,99.99
2023-04-08T04:02:23.052Z,99.99
2023-04-08T04:03:23.082Z,99.99
2023-04-08T04:04:23.079Z,99.99
2023-04-08T04:05:22.852Z,99.99
2023-04-08T04:06:22.856Z,99.99
2023-04-08T04:07:22.851Z,99.99
2023-04-08T04:08:22.829Z,99.99
2023-04-08T04:09:22.818Z,99.99
2023-04-08T04:10:22.818Z,99.99
2023-04-08T04:11:22.794Z,99.99
2023-04-08T04:12:22.791Z,99.99
2023-04-08T04:13:22.772Z,99.99
2023-04-08T04:14:22.775Z,99.99
2023-04-08T04:15:22.752Z,99.99
2023-04-08T04:16:22.998Z,99.99
2023-04-08T04:17:22.752Z,99.99
2023-04-08T04:18:23.575Z,99.99
2023-04-08T04:19:22.715Z,99.99
2023-04-08T04:20:22.707Z,99.99
2023-04-08T04:21:22.684Z,99.99
2023-04-08T04:22:23.498Z,99.99
2023-04-08T04:23:22.792Z,99.99
2023-04-08T04:24:22.671Z,99.99
2023-04-08T04:25:22.663Z,99.99
2023-04-08T04:26:22.651Z,99.99
2023-04-08T04:27:22.972Z,99.99
2023-04-08T04:28:22.623Z,99.99
2023-04-08T04:29:22.606Z,99.99
2023-04-08T04:30:22.605Z,99.99
2023-04-08T04:31:22.708Z,99.99
2023-04-08T04:32:22.613Z,99.99
2023-04-08T04:33:22.551Z,99.99
2023-04-08T04:34:22.556Z,99.99
2023-04-08T04:35:22.614Z,99.99
2023-04-08T04:36:22.549Z,99.99
2023-04-08T04:37:22.528Z,99.99
2023-04-08T04:38:22.527Z,99.99
2023-04-08T04:39:22.496Z,99.99
2023-04-08T04:40:22.493Z,99.99
2023-04-08T04:41:22.473Z,99.99
2023-04-08T04:42:22.482Z,99.99
2023-04-08T04:43:22.456Z,99.99
2023-04-08T04:44:22.446Z,99.99
2023-04-08T04:45:22.434Z,99.99
2023-04-08T04:46:22.445Z,99.99
2023-04-08T04:47:22.403Z,99.99
2023-04-08T04:48:22.399Z,99.99
2023-04-08T04:49:22.402Z,99.99
2023-04-08T04:50:22.379Z,99.99
2023-04-08T04:51:22.366Z,99.99
2023-04-08T04:52:22.364Z,99.99
2023-04-08T04:53:22.337Z,99.99
2023-04-08T04:54:22.344Z,99.99
2023-04-08T04:55:22.336Z,99.99
2023-04-08T04:56:22.333Z,99.99
2023-04-08T04:57:22.296Z,99.99
2023-04-08T04:58:22.306Z,99.99
2023-04-08T04:59:22.286Z,99.99
2023-04-08T05:00:22.273Z,99.99
2023-04-08T05:01:22.332Z,99.99
2023-04-08T05:02:22.335Z,99.99
2023-04-08T05:03:22.272Z,99.99
2023-04-08T05:04:22.238Z,99.99
2023-04-08T05:05:22.291Z,99.99
2023-04-08T05:06:22.216Z,99.99
2023-04-08T05:07:22.200Z,99.99
2023-04-08T05:08:22.190Z,99.99
2023-04-08T05:09:22.177Z,99.99
2023-04-08T05:10:22.173Z,99.99
2023-04-08T05:11:22.168Z,99.99
2023-04-08T05:12:22.150Z,99.99
2023-04-08T05:13:22.135Z,99.99
2023-04-08T05:14:22.151Z,99.99
2023-04-08T05:15:22.120Z,99.99
2023-04-08T05:16:22.145Z,99.99
2023-04-08T05:17:22.184Z,99.99
2023-04-08T05:18:22.094Z,99.99
2023-04-08T05:19:22.074Z,99.99
2023-04-08T05:20:22.081Z,99.99
2023-04-08T05:21:22.066Z,99.99
2023-04-08T05:22:22.070Z,99.99
2023-04-08T05:23:22.048Z,99.99
2023-04-08T05:24:22.071Z,99.99
2023-04-08T05:25:22.012Z,99.99
2023-04-08T05:26:22.014Z,99.99
2023-04-08T05:27:22.001Z,99.99
2023-04-08T05:28:22.000Z,99.99
2023-04-08T05:29:22.007Z,99.99
2023-04-08T05:30:21.980Z,99.99
2023-04-08T05:31:22.031Z,99.99
2023-04-08T05:32:21.980Z,99.99
2023-04-08T05:33:21.934Z,99.99
2023-04-08T05:34:21.935Z,99.99
2023-04-08T05:35:21.922Z,99.99
2023-04-08T05:36:21.906Z,99.99
2023-04-08T05:37:21.892Z,99.99
2023-04-08T05:38:21.889Z,99.99
2023-04-08T05:39:21.923Z,99.99
2023-04-08T05:40:21.877Z,99.99
2023-04-08T05:41:21.850Z,99.99
2023-04-08T05:42:21.852Z,99.99
2023-04-08T05:43:21.828Z,99.99
2023-04-08T05:44:21.818Z,99.99
2023-04-08T05:45:21.815Z,99.99
2023-04-08T05:46:21.912Z,99.99
2023-04-08T05:47:21.844Z,99.99
2023-04-08T05:48:21.783Z,99.99
2023-04-08T05:49:21.764Z,99.99
2023-04-08T05:50:21.768Z,99.99
2023-04-08T05:51:21.747Z,99.99
2023-04-08T05:52:21.750Z,99.99
2023-04-08T05:53:21.722Z,99.99
2023-04-08T05:54:21.732Z,99.99
2023-04-08T05:55:21.698Z,99.99
2023-04-08T05:56:21.701Z,99.99
2023-04-08T05:57:21.674Z,99.99
2023-04-08T05:58:21.688Z,99.99
2023-04-08T05:59:21.656Z,99.99
2023-04-08T06:00:21.659Z,99.99
2023-04-08T06:01:21.640Z,99.99
2023-04-08T06:02:21.735Z,99.99
2023-04-08T06:03:21.903Z,99.99
2023-04-08T06:04:21.675Z,99.99
2023-04-08T06:05:21.587Z,99.99
2023-04-08T06:06:21.592Z,99.99
2023-04-08T06:07:21.573Z,99.99
2023-04-08T06:08:21.569Z,99.99
2023-04-08T06:09:21.576Z,99.99
2023-04-08T06:10:21.546Z,99.99
2023-04-08T06:11:21.538Z,99.99
2023-04-08T06:12:21.514Z,99.99
2023-04-08T06:13:21.530Z,99.99
2023-04-08T06:14:21.530Z,99.99
2023-04-08T06:15:21.565Z,99.99
2023-04-08T06:16:21.600Z,99.99
2023-04-08T06:17:21.594Z,99.99
2023-04-08T06:18:21.446Z,99.99
2023-04-08T06:19:21.454Z,99.99
2023-04-08T06:20:21.454Z,99.99
2023-04-08T06:21:21.549Z,99.99
2023-04-08T06:22:21.728Z,99.99
2023-04-08T06:23:21.678Z,99.99
2023-04-08T06:24:21.397Z,99.99
2023-04-08T06:25:21.382Z,99.99
2023-04-08T06:26:21.385Z,99.99
2023-04-08T06:27:21.566Z,99.99
2023-04-08T06:28:21.345Z,99.99
2023-04-08T06:29:21.339Z,99.99
2023-04-08T06:30:21.324Z,99.99
2023-04-08T06:31:21.398Z,99.99
2023-04-08T06:32:21.322Z,99.99
2023-04-08T06:33:21.297Z,99.99
2023-04-08T06:34:21.385Z,99.99
2023-04-08T06:35:21.397Z,99.99
2023-04-08T06:36:21.255Z,99.99
2023-04-08T06:37:21.268Z,99.99
2023-04-08T06:38:21.252Z,99.99
2023-04-08T06:39:21.234Z,99.99
2023-04-08T06:40:21.212Z,99.99
2023-04-08T06:41:21.220Z,99.99
2023-04-08T06:42:22.979Z,99.99
2023-04-08T06:43:21.213Z,99.99
2023-04-08T06:44:21.174Z,99.99
2023-04-08T06:45:21.178Z,99.99
2023-04-08T06:46:21.191Z,99.99
2023-04-08T06:47:21.173Z,99.99
2023-04-08T06:48:21.132Z,99.99
2023-04-08T06:49:21.153Z,99.99
2023-04-08T06:50:21.125Z,99.99
2023-04-08T06:51:21.118Z,99.99
2023-04-08T06:52:21.092Z,99.99
2023-04-08T06:53:21.086Z,99.99
2023-04-08T06:54:21.270Z,99.99
2023-04-08T06:55:21.079Z,99.99
2023-04-08T06:56:21.044Z,99.99
2023-04-08T06:57:21.042Z,99.99
2023-04-08T06:58:21.028Z,99.49
2023-04-08T06:59:21.848Z,98.77
2023-04-08T07:00:21.004Z,98.15
2023-04-08T07:01:21.061Z,98.25
2023-04-08T07:02:21.061Z,98.66
2023-04-08T07:03:21.908Z,99.08
2023-04-08T07:04:21.086Z,99.29
2023-04-08T07:05:20.964Z,97.84
2023-04-08T07:06:20.952Z,97.63
2023-04-08T07:07:20.943Z,97.74
2023-04-08T07:08:20.954Z,97.63
2023-04-08T07:09:20.925Z,97.53
2023-04-08T07:10:20.905Z,97.38
2023-04-08T07:11:20.909Z,97.22
2023-04-08T07:12:20.888Z,97.22
2023-04-08T07:13:20.882Z,97.59
2023-04-08T07:14:20.877Z,98.00
2023-04-08T07:15:20.858Z,98.52
2023-04-08T07:16:20.909Z,98.78
2023-04-08T07:17:21.222Z,98.88
2023-04-08T07:18:20.821Z,97.85
2023-04-08T07:19:20.831Z,96.82
2023-04-08T07:20:20.795Z,96.61
2023-04-08T07:21:20.942Z,97.13
2023-04-08T07:22:20.784Z,97.29
2023-04-08T07:23:20.776Z,97.50
2023-04-08T07:24:20.758Z,97.50
2023-04-08T07:25:20.849Z,97.25
2023-04-08T07:26:21.069Z,97.14
2023-04-08T07:27:20.741Z,97.45
2023-04-08T07:28:20.718Z,97.55
2023-04-08T07:29:20.711Z,97.20
2023-04-08T07:30:20.701Z,96.69
2023-04-08T07:31:20.749Z,96.79
2023-04-08T07:32:20.842Z,96.06
2023-04-08T07:33:20.674Z,94.52
2023-04-08T07:34:20.675Z,94.10
2023-04-08T07:35:21.502Z,92.76
2023-04-08T07:36:20.637Z,92.25
2023-04-08T07:37:20.630Z,92.76
2023-04-08T07:38:20.604Z,93.18
2023-04-08T07:39:20.703Z,93.38
2023-04-08T07:40:20.586Z,93.07
2023-04-08T07:41:20.581Z,93.44
2023-04-08T07:42:20.576Z,93.65
2023-04-08T07:43:20.652Z,93.34
2023-04-08T07:44:20.593Z,93.60
2023-04-08T07:45:20.541Z,93.91
2023-04-08T07:46:20.557Z,93.77
2023-04-08T07:47:20.523Z,93.15
2023-04-08T07:48:20.510Z,91.81
2023-04-08T07:49:20.498Z,90.67
2023-04-08T07:50:20.481Z,90.57
2023-04-08T07:51:20.475Z,89.13
2023-04-08T07:52:20.455Z,89.17
2023-04-08T07:53:22.207Z,90.00
2023-04-08T07:54:20.433Z,90.20
2023-04-08T07:55:20.436Z,90.26
2023-04-08T07:56:20.408Z,90.57
2023-04-08T07:57:20.418Z,90.22
2023-04-08T07:58:20.396Z,88.89
2023-04-08T07:59:20.389Z,89.81
2023-04-08T08:00:20.367Z,89.36
2023-04-08T08:01:20.361Z,90.18
2023-04-08T08:02:20.492Z,91.38
2023-04-08T08:03:20.540Z,90.45
2023-04-08T08:04:20.453Z,87.32
2023-04-08T08:05:20.425Z,87.42
2023-04-08T08:06:20.305Z,87.63
2023-04-08T08:07:21.095Z,87.18
2023-04-08T08:08:20.296Z,86.50
2023-04-08T08:09:20.280Z,85.51
2023-04-08T08:10:20.262Z,86.74
2023-04-08T08:11:20.261Z,86.54
2023-04-08T08:12:20.243Z,86.23
2023-04-08T08:13:20.239Z,87.05
2023-04-08T08:14:20.222Z,86.33
2023-04-08T08:15:20.220Z,86.74
2023-04-08T08:16:20.237Z,86.74
2023-04-08T08:17:20.477Z,89.75
2023-04-08T08:18:20.183Z,87.34
2023-04-08T08:19:20.183Z,85.18
2023-04-08T08:20:20.158Z,86.27
2023-04-08T08:21:20.162Z,85.66
2023-04-08T08:22:20.135Z,84.74
2023-04-08T08:23:20.145Z,84.74
2023-04-08T08:24:20.133Z,84.12
2023-04-08T08:25:20.116Z,84.59
2023-04-08T08:26:20.098Z,84.12
2023-04-08T08:27:20.102Z,84.94
2023-04-08T08:28:20.073Z,86.17
2023-04-08T08:29:20.080Z,86.75
2023-04-08T08:30:20.060Z,85.99
2023-04-08T08:31:20.093Z,84.34
2023-04-08T08:32:20.032Z,84.76
2023-04-08T08:33:20.029Z,84.41
2023-04-08T08:34:20.014Z,82.43
2023-04-08T08:35:20.017Z,83.67
2023-04-08T08:36:20.006Z,83.87
2023-04-08T08:37:19.987Z,83.87
2023-04-08T08:38:19.975Z,85.21
2023-04-08T08:39:19.986Z,84.76
2023-04-08T08:40:20.246Z,84.66
2023-04-08T08:41:19.948Z,84.69
2023-04-08T08:42:19.925Z,84.18
2023-04-08T08:43:20.198Z,83.40
2023-04-08T08:44:19.905Z,84.32
2023-04-08T08:45:19.913Z,84.74
2023-04-08T08:46:19.910Z,83.40
2023-04-08T08:47:19.926Z,83.09
2023-04-08T08:48:19.872Z,84.63
2023-04-08T08:49:19.859Z,85.25
2023-04-08T08:50:19.888Z,86.13
2023-04-08T08:51:19.841Z,84.59
2023-04-08T08:52:19.816Z,85.72
2023-04-08T08:53:19.836Z,85.58
2023-04-08T08:54:19.792Z,85.95
2023-04-08T08:55:34.995Z,83.39
2023-04-08T08:56:20.932Z,82.97
2023-04-08T08:57:19.766Z,83.28
2023-04-08T08:58:19.744Z,82.70
2023-04-08T08:59:19.749Z,82.43
2023-04-08T09:00:19.820Z,83.98
2023-04-08T09:01:19.748Z,83.87
2023-04-08T09:02:19.797Z,84.04
2023-04-08T09:03:20.068Z,83.42
2023-04-08T09:04:20.011Z,81.78
2023-04-08T09:05:19.820Z,81.68
2023-04-08T09:06:19.657Z,81.10
2023-04-08T09:07:19.661Z,83.15
2023-04-08T09:08:19.637Z,83.73
2023-04-08T09:09:19.641Z,84.14
2023-04-08T09:10:19.716Z,82.09
2023-04-08T09:11:20.427Z,81.99
2023-04-08T09:12:19.603Z,81.37
2023-04-08T09:13:19.597Z,82.60
2023-04-08T09:14:19.585Z,82.91
2023-04-08T09:15:19.594Z,83.39
2023-04-08T09:16:19.614Z,84.41
2023-04-08T09:17:19.554Z,81.02
2023-04-08T09:18:19.529Z,81.54
2023-04-08T09:19:19.542Z,82.60
2023-04-08T09:20:19.585Z,82.19
2023-04-08T09:21:19.518Z,81.57
2023-04-08T09:22:19.492Z,82.40
2023-04-08T09:23:19.491Z,83.07
2023-04-08T09:24:19.467Z,83.69
2023-04-08T09:25:19.480Z,82.12
2023-04-08T09:26:19.458Z,80.41
2023-04-08T09:27:19.441Z,82.05
2023-04-08T09:28:19.447Z,82.12
2023-04-08T09:30:20.404Z,81.50
2023-04-08T09:31:19.455Z,81.81
2023-04-08T09:32:19.377Z,79.55
2023-04-08T09:33:19.375Z,78.63
2023-04-08T09:34:19.356Z,78.83
2023-04-08T09:35:19.349Z,78.53
2023-04-08T09:36:19.345Z,80.03
2023-04-08T09:37:19.336Z,80.91
2023-04-08T09:38:19.311Z,79.99
2023-04-08T09:39:19.328Z,79.96
2023-04-08T09:40:20.090Z,77.39
2023-04-08T09:41:19.290Z,78.89
2023-04-08T09:42:19.267Z,76.98
2023-04-08T09:43:19.277Z,77.47
2023-04-08T09:44:19.252Z,78.83
2023-04-08T09:45:19.256Z,80.58
2023-04-08T09:46:19.381Z,79.96
2023-04-08T09:47:19.222Z,81.13
2023-04-08T09:48:19.234Z,80.47
2023-04-08T09:49:19.200Z,78.90
2023-04-08T09:50:19.208Z,81.08
2023-04-08T09:51:19.179Z,80.02
2023-04-08T09:52:19.154Z,77.46
2023-04-08T09:53:20.253Z,75.96
2023-04-08T09:54:19.131Z,76.88
2023-04-08T09:55:19.144Z,76.34
2023-04-08T09:56:19.119Z,77.97
2023-04-08T09:57:19.117Z,78.14
2023-04-08T09:58:19.096Z,75.71
2023-04-08T09:59:19.090Z,74.46
2023-04-08T10:00:19.230Z,72.14
2023-04-08T10:01:19.098Z,73.85
2023-04-08T10:02:19.154Z,75.93
2023-04-08T10:03:19.369Z,75.42
2023-04-08T10:04:19.075Z,74.29
2023-04-08T10:05:19.045Z,74.08
2023-04-08T10:06:19.010Z,74.84
2023-04-08T10:07:19.008Z,77.50
2023-04-08T10:08:18.986Z,78.34
2023-04-08T10:09:18.992Z,75.55
2023-04-08T10:10:18.968Z,77.15
2023-04-08T10:11:18.977Z,75.04
2023-04-08T10:12:18.944Z,72.45
2023-04-08T10:13:18.958Z,71.70
2023-04-08T10:14:18.923Z,72.08
2023-04-08T10:15:18.921Z,70.34
2023-04-08T10:16:18.949Z,70.68
2023-04-08T10:17:18.900Z,69.79
2023-04-08T10:18:18.895Z,71.12
2023-04-08T10:19:18.874Z,70.24
2023-04-08T10:20:18.856Z,67.45
2023-04-08T10:21:18.854Z,68.95
2023-04-08T10:22:18.828Z,68.50
2023-04-08T10:23:18.855Z,70.17
2023-04-08T10:24:18.821Z,71.67
2023-04-08T10:25:18.812Z,71.05
2023-04-08T10:26:18.788Z,70.81
2023-04-08T10:27:18.797Z,72.99
2023-04-08T10:28:18.782Z,73.06
2023-04-08T10:29:18.781Z,72.21
2023-04-08T10:30:18.759Z,71.15
2023-04-08T10:31:18.795Z,72.24
2023-04-08T10:32:18.740Z,70.27
2023-04-08T10:33:18.727Z,68.23
2023-04-08T10:34:18.711Z,69.66
2023-04-08T10:35:18.758Z,69.18
2023-04-08T10:36:18.686Z,68.63
2023-04-08T10:37:18.668Z,70.40
2023-04-08T10:38:18.673Z,71.42
2023-04-08T10:39:18.659Z,71.73
2023-04-08T10:40:18.643Z,70.98
2023-04-08T10:41:18.634Z,72.69
2023-04-08T10:42:18.620Z,70.48
2023-04-08T10:43:18.613Z,69.66
2023-04-08T10:44:18.622Z,69.39
2023-04-08T10:45:18.580Z,68.10
2023-04-08T10:46:18.605Z,69.83
2023-04-08T10:47:18.558Z,68.10
2023-04-08T10:48:18.558Z,69.66
2023-04-08T10:49:18.538Z,68.33
2023-04-08T10:50:18.546Z,68.13
2023-04-08T10:51:18.512Z,68.51
2023-04-08T10:52:18.512Z,68.17
2023-04-08T10:53:18.494Z,67.39
2023-04-08T10:54:18.503Z,64.64
2023-04-08T10:55:18.470Z,64.78
2023-04-08T10:56:18.531Z,66.00
2023-04-08T10:57:18.729Z,65.34
2023-04-08T10:58:18.453Z,67.72
2023-04-08T10:59:18.429Z,67.72
2023-04-08T11:00:18.447Z,67.11
2023-04-08T11:01:18.537Z,68.09
2023-04-08T11:02:18.522Z,69.32
2023-04-08T11:03:18.602Z,69.79
2023-04-08T11:04:18.518Z,68.23
2023-04-08T11:05:18.364Z,68.23
2023-04-08T11:06:18.382Z,67.41
2023-04-08T11:07:18.344Z,67.38
2023-04-08T11:08:20.532Z,67.85
2023-04-08T11:09:18.320Z,70.81
2023-04-08T11:10:19.134Z,67.93
2023-04-08T11:11:18.303Z,70.07
2023-04-08T11:12:18.297Z,68.30
2023-04-08T11:13:18.286Z,67.83
2023-04-08T11:14:18.278Z,66.50
2023-04-08T11:15:18.266Z,66.94
2023-04-08T11:16:18.784Z,67.62
2023-04-08T11:17:18.278Z,69.32
2023-04-08T11:18:18.240Z,68.53
2023-04-08T11:19:18.664Z,69.45
2023-04-08T11:20:18.221Z,69.73
2023-04-08T11:21:18.223Z,69.18
2023-04-08T11:22:18.201Z,68.95
2023-04-08T11:23:18.184Z,69.63
2023-04-08T11:24:18.171Z,66.74
2023-04-08T11:25:18.151Z,67.99
2023-04-08T11:26:18.160Z,66.13
2023-04-08T11:27:18.137Z,66.94
2023-04-08T11:28:18.129Z,66.71
2023-04-08T11:29:18.106Z,64.81
2023-04-08T11:30:18.108Z,69.26
2023-04-08T11:31:18.093Z,65.33
2023-04-08T11:32:18.085Z,64.57
2023-04-08T11:33:18.150Z,66.91
2023-04-08T11:34:18.069Z,65.83
2023-04-08T11:35:18.043Z,65.33
2023-04-08T11:36:18.032Z,66.00
2023-04-08T11:37:18.023Z,64.76
2023-04-08T11:38:18.851Z,65.41
2023-04-08T11:39:18.010Z,60.60
2023-04-08T11:40:17.999Z,62.16
2023-04-08T11:41:17.977Z,64.36
2023-04-08T11:42:17.972Z,63.01
2023-04-08T11:43:17.960Z,61.29
2023-04-08T11:44:17.951Z,60.47
2023-04-08T11:45:17.928Z,58.72
2023-04-08T11:46:17.964Z,58.47
2023-04-08T11:47:17.906Z,57.65
2023-04-08T11:48:17.904Z,57.96
2023-04-08T11:49:17.896Z,57.62
2023-04-08T11:50:17.887Z,59.79
2023-04-08T11:51:17.867Z,63.02
2023-04-08T11:52:17.867Z,62.48
2023-04-08T11:53:17.851Z,63.01
2023-04-08T11:54:17.849Z,65.30
2023-04-08T11:55:17.826Z,62.59
2023-04-08T11:56:17.838Z,61.04
2023-04-08T11:57:17.807Z,62.23
2023-04-08T11:58:17.830Z,61.95
2023-04-08T11:59:17.793Z,61.11
2023-04-08T12:00:17.790Z,61.16
2023-04-08T12:01:17.781Z,60.52
2023-04-08T12:02:17.853Z,62.85
2023-04-08T12:03:17.844Z,60.62
2023-04-08T12:04:17.800Z,61.49
2023-04-08T12:05:17.722Z,60.78
2023-04-08T12:06:17.717Z,61.47
2023-04-08T12:07:17.712Z,63.51
2023-04-08T12:08:17.701Z,63.40
2023-04-08T12:09:17.682Z,61.32
2023-04-08T12:10:17.697Z,59.75
2023-04-08T12:11:19.962Z,62.65
2023-04-08T12:12:17.650Z,63.74
2023-04-08T12:13:17.630Z,63.43
2023-04-08T12:14:17.628Z,63.02
2023-04-08T12:15:17.607Z,62.53
2023-04-08T12:16:17.661Z,61.59
2023-04-08T12:17:17.594Z,60.10
2023-04-08T12:18:17.585Z,63.00
2023-04-08T12:19:17.565Z,61.88
2023-04-08T12:20:17.582Z,61.81
2023-04-08T12:21:17.545Z,63.19
2023-04-08T12:22:17.551Z,63.87
2023-04-08T12:23:17.537Z,62.52
2023-04-08T12:24:17.517Z,64.76
2023-04-08T12:25:17.498Z,63.40
2023-04-08T12:26:17.518Z,60.86
2023-04-08T12:27:17.493Z,63.00
2023-04-08T12:28:17.482Z,62.63
2023-04-08T12:29:17.462Z,60.50
2023-04-08T12:30:17.456Z,60.20
2023-04-08T12:31:17.486Z,59.14
2023-04-08T12:32:17.442Z,61.71
2023-04-08T12:33:17.438Z,60.33
2023-04-08T12:34:17.423Z,60.85
2023-04-08T12:35:17.406Z,58.92
2023-04-08T12:36:17.442Z,56.94
2023-04-08T12:37:17.381Z,59.01
2023-04-08T12:38:17.379Z,59.48
2023-04-08T12:39:17.351Z,60.78
2023-04-08T12:40:17.353Z,59.26
2023-04-08T12:41:17.345Z,58.20
2023-04-08T12:42:17.336Z,59.67
2023-04-08T12:43:17.330Z,61.10
2023-04-08T12:44:17.320Z,59.88
2023-04-08T12:45:17.293Z,59.64
2023-04-08T12:46:17.297Z,64.32
2023-04-08T12:47:17.330Z,62.32
2023-04-08T12:48:17.275Z,61.20
2023-04-08T12:49:17.247Z,61.30
2023-04-08T12:50:17.263Z,61.17
2023-04-08T12:51:17.252Z,61.17
2023-04-08T12:52:17.272Z,64.45
2023-04-08T12:53:17.208Z,63.48